Time;durP1;ratioP1;P1;durP2;ratioP2;P2;SDS_P1;SDS_P2;PMS_P1;PMS_P2;Temp;Humidity;BMP_temperature;BMP_pressure;BME280_temperature;BME280_humidity;BME280_pressure;Samples;Min_cycle;Max_cycle;Signal;HPM_P1;HPM_P2
2021/06/26 00:00:14;;;;;;;12.02;3.20;;;589.50;2124.80;;;;;;5114297;28;20035;-75
2021/06/26 00:02:40;;;;;;;14.38;3.60;;;589.50;2150.40;;;;;;5114323;28;20011;-74
2021/06/26 00:05:08;;;;;;;12.00;4.07;;;589.50;2124.80;;;;;;5114884;28;20389;-75
2021/06/26 00:07:34;;;;;;;7.85;3.20;;;589.60;2124.80;;;;;;5114454;28;20020;-74
2021/06/26 00:10:00;;;;;;;10.70;3.70;;;589.50;2124.80;;;;;;5113458;28;20026;-74
2021/06/26 00:12:25;;;;;;;12.73;4.18;;;589.70;2124.80;;;;;;5114224;28;20058;-73
2021/06/26 00:14:52;;;;;;;8.07;3.35;;;589.50;2124.80;;;;;;5114425;28;20047;-76
2021/06/26 00:17:18;;;;;;;12.45;4.07;;;589.60;2124.80;;;;;;5113981;28;20028;-73
2021/06/26 00:19:43;;;;;;;13.23;3.65;;;589.50;2150.40;;;;;;5114442;28;20469;-73
2021/06/26 00:22:09;;;;;;;9.35;3.22;;;589.40;2176.00;;;;;;5112966;28;20461;-74
2021/06/26 00:24:35;;;;;;;15.80;4.43;;;589.40;2176.00;;;;;;5114566;28;20094;-74
2021/06/26 00:27:01;;;;;;;15.93;4.25;;;589.30;2150.40;;;;;;5113968;28;20022;-74
2021/06/26 00:29:27;;;;;;;12.13;3.65;;;589.30;2150.40;;;;;;5114104;28;20380;-74
2021/06/26 00:31:53;;;;;;;10.02;3.53;;;589.10;2201.60;;;;;;5112140;28;20054;-78
2021/06/26 00:34:19;;;;;;;11.00;3.53;;;589.10;2201.60;;;;;;5112112;28;20411;-77
2021/06/26 00:36:45;;;;;;;10.43;4.25;;;589.20;2176.00;;;;;;5114043;28;20012;-73
2021/06/26 00:39:11;;;;;;;14.07;4.00;;;589.20;2201.60;;;;;;5113657;28;20045;-73
2021/06/26 00:41:37;;;;;;;9.15;3.53;;;588.90;2201.60;;;;;;5112492;28;20016;-74
2021/06/26 00:44:09;;;;;;;9.23;3.75;;;564.10;2252.80;;;;;;5113853;28;20038;-78
2021/06/26 00:46:36;;;;;;;8.93;3.65;;;589.00;2227.20;;;;;;5114076;28;20027;-74
2021/06/26 00:49:03;;;;;;;12.25;4.30;;;589.00;2201.60;;;;;;5112400;28;20048;-73
2021/06/26 00:51:29;;;;;;;17.20;3.70;;;588.80;2227.20;;;;;;5113561;28;20019;-74
2021/06/26 00:53:56;;;;;;;14.88;3.63;;;564.10;2252.80;;;;;;5113275;28;20502;-73
2021/06/26 00:56:22;;;;;;;9.07;3.90;;;564.10;2252.80;;;;;;5109730;28;20019;-74
2021/06/26 00:58:48;;;;;;;9.50;3.28;;;588.80;2227.20;;;;;;5113742;28;20035;-74
2021/06/26 01:01:14;;;;;;;8.93;4.38;;;564.10;2252.80;;;;;;5113627;28;20015;-73
2021/06/26 01:03:40;;;;;;;9.07;3.13;;;564.10;2227.20;;;;;;5113354;28;20035;-74
2021/06/26 01:06:06;;;;;;;13.20;4.03;;;564.00;2252.80;;;;;;5133361;27;20090;-74
2021/06/26 01:08:31;;;;;;;10.23;3.83;;;564.10;2252.80;;;;;;5133650;27;20054;-73
2021/06/26 01:10:58;;;;;;;13.75;4.25;;;563.90;2252.80;;;;;;5115130;27;20080;-73
2021/06/26 01:13:24;;;;;;;10.43;3.65;;;563.80;2278.40;;;;;;5133870;27;20042;-74
2021/06/26 01:15:53;;;;;;;6.47;3.50;;;563.90;2252.80;;;;;;5133351;27;20503;-74
2021/06/26 01:18:19;;;;;;;11.20;3.70;;;564.10;2227.20;;;;;;5133338;27;20380;-73
2021/06/26 01:20:44;;;;;;;17.52;4.07;;;564.00;2227.20;;;;;;5115430;27;20023;-78
2021/06/26 01:23:13;;;;;;;14.77;4.70;;;564.10;2227.20;;;;;;5133158;27;20031;-74
2021/06/26 01:25:39;;;;;;;12.93;5.28;;;564.00;2227.20;;;;;;5114960;27;20126;-74
2021/06/26 01:28:05;;;;;;;13.15;4.70;;;564.10;2252.80;;;;;;5114732;27;20435;-74
2021/06/26 01:30:34;;;;;;;13.25;4.22;;;563.80;2252.80;;;;;;5133357;27;20098;-73
2021/06/26 01:33:02;;;;;;;7.63;3.80;;;563.90;2227.20;;;;;;5132903;27;20019;-74
2021/06/26 01:35:28;;;;;;;16.25;4.55;;;564.10;2227.20;;;;;;5133262;27;20065;-74
2021/06/26 01:37:56;;;;;;;19.20;4.20;;;564.10;2227.20;;;;;;5114466;27;20027;-73
2021/06/26 01:40:24;;;;;;;8.82;3.55;;;564.10;2227.20;;;;;;5132996;27;20015;-74
2021/06/26 01:42:51;;;;;;;10.85;4.35;;;588.80;2201.60;;;;;;5114897;27;20486;-74
2021/06/26 01:45:18;;;;;;;12.75;4.07;;;564.10;2227.20;;;;;;5114347;27;20031;-77
2021/06/26 01:47:46;;;;;;;11.77;4.25;;;563.80;2252.80;;;;;;5130010;27;20054;-74
2021/06/26 01:50:12;;;;;;;13.25;4.00;;;564.00;2252.80;;;;;;5132693;27;20594;-74
2021/06/26 01:52:38;;;;;;;14.43;3.90;;;564.00;2252.80;;;;;;5113798;27;20141;-74
2021/06/26 01:55:04;;;;;;;11.75;3.90;;;564.10;2252.80;;;;;;5111659;27;20090;-74
2021/06/26 01:57:30;;;;;;;11.02;4.18;;;564.10;2252.80;;;;;;5131998;27;20532;-76
2021/06/26 01:59:56;;;;;;;7.28;3.95;;;588.90;2201.60;;;;;;5132780;27;20019;-74
2021/06/26 02:02:21;;;;;;;19.63;4.22;;;589.00;2201.60;;;;;;5114188;27;20361;-74
2021/06/26 02:04:47;;;;;;;13.00;4.03;;;589.10;2201.60;;;;;;5132686;27;20119;-78
2021/06/26 02:07:13;;;;;;;11.15;4.10;;;589.00;2201.60;;;;;;5132336;27;20781;-74
2021/06/26 02:09:39;;;;;;;12.85;4.05;;;588.80;2227.20;;;;;;5132636;27;20027;-74
2021/06/26 02:12:05;;;;;;;15.23;3.95;;;564.00;2252.80;;;;;;5111111;27;20027;-74
2021/06/26 02:14:31;;;;;;;9.23;4.18;;;564.00;2201.60;;;;;;5132513;27;20027;-74
2021/06/26 02:16:56;;;;;;;12.43;4.65;;;564.10;2252.80;;;;;;5132632;27;20019;-75
2021/06/26 02:19:22;;;;;;;7.95;3.70;;;588.80;2227.20;;;;;;5132602;27;20038;-74
2021/06/26 02:21:48;;;;;;;6.80;3.25;;;589.00;2201.60;;;;;;5132652;27;20023;-76
2021/06/26 02:24:14;;;;;;;10.43;3.75;;;589.00;2201.60;;;;;;5113679;27;20450;-74
2021/06/26 02:26:40;;;;;;;17.42;4.43;;;589.00;2201.60;;;;;;5132178;27;20023;-78
2021/06/26 02:29:05;;;;;;;14.77;5.05;;;589.00;2201.60;;;;;;5129782;27;20433;-76
2021/06/26 02:31:31;;;;;;;8.77;3.85;;;588.80;2227.20;;;;;;5114065;28;20098;-74
2021/06/26 02:33:57;;;;;;;13.40;4.15;;;589.00;2227.20;;;;;;5132330;27;20030;-74
2021/06/26 02:36:23;;;;;;;7.07;3.33;;;589.00;2227.20;;;;;;5132399;27;20027;-74
2021/06/26 02:38:48;;;;;;;13.35;3.97;;;589.10;2227.20;;;;;;5113490;27;20503;-74
2021/06/26 02:41:14;;;;;;;11.48;3.78;;;589.20;2176.00;;;;;;5132318;28;20012;-75
2021/06/26 02:43:40;;;;;;;16.98;5.50;;;589.10;2176.00;;;;;;5131828;28;20026;-74
2021/06/26 02:46:05;;;;;;;14.48;4.22;;;589.10;2176.00;;;;;;5131410;27;20030;-73
2021/06/26 02:48:31;;;;;;;11.63;3.97;;;589.00;2176.00;;;;;;5131844;28;20015;-74
2021/06/26 02:50:57;;;;;;;13.27;4.25;;;589.10;2176.00;;;;;;5131781;27;20022;-74
2021/06/26 02:53:22;;;;;;;12.20;5.10;;;589.10;2176.00;;;;;;5113350;28;20472;-74
2021/06/26 02:55:55;;;;;;;9.52;4.32;;;589.20;2176.00;;;;;;5113746;28;20118;-74
2021/06/26 02:58:22;;;;;;;11.52;4.38;;;589.20;2176.00;;;;;;5113930;28;20061;-74
2021/06/26 03:00:48;;;;;;;9.55;4.00;;;589.30;2176.00;;;;;;5129382;28;20015;-74
2021/06/26 03:03:14;;;;;;;15.32;4.45;;;589.30;2176.00;;;;;;5132128;28;20035;-74
2021/06/26 03:05:39;;;;;;;8.43;3.53;;;589.40;2176.00;;;;;;5133943;27;20023;-78
2021/06/26 03:08:06;;;;;;;16.50;4.93;;;589.40;2150.40;;;;;;5136059;27;20472;-74
2021/06/26 03:10:32;;;;;;;10.40;4.30;;;589.20;2150.40;;;;;;5135815;27;20019;-78
2021/06/26 03:12:58;;;;;;;13.95;3.70;;;589.20;2150.40;;;;;;5136158;27;20042;-74
2021/06/26 03:15:24;;;;;;;9.00;3.95;;;589.20;2150.40;;;;;;5135855;27;20471;-74
2021/06/26 03:17:49;;;;;;;13.75;4.53;;;589.20;2150.40;;;;;;5117311;27;20027;-74
2021/06/26 03:20:15;;;;;;;16.92;3.65;;;589.20;2150.40;;;;;;5135887;27;20061;-74
2021/06/26 03:22:41;;;;;;;12.43;3.97;;;589.10;2176.00;;;;;;5117307;27;20428;-74
2021/06/26 03:25:09;;;;;;;14.73;4.25;;;589.00;2176.00;;;;;;5117318;27;20065;-74
2021/06/26 03:27:38;;;;;;;9.80;4.43;;;589.10;2176.00;;;;;;5135861;27;20019;-75
2021/06/26 03:30:05;;;;;;;12.75;4.47;;;589.10;2176.00;;;;;;5135883;27;20543;-74
2021/06/26 03:32:31;;;;;;;14.60;4.40;;;589.10;2176.00;;;;;;5135246;27;20019;-76
2021/06/26 03:34:57;;;;;;;14.40;4.30;;;589.10;2176.00;;;;;;5116999;27;20464;-77
2021/06/26 03:37:22;;;;;;;11.60;4.18;;;589.20;2150.40;;;;;;5135443;27;20436;-74
2021/06/26 03:39:48;;;;;;;13.55;4.65;;;589.20;2150.40;;;;;;5135412;27;20025;-73
2021/06/26 03:42:14;;;;;;;13.30;4.57;;;589.20;2150.40;;;;;;5135258;27;20019;-75
2021/06/26 03:44:40;;;;;;;9.80;3.67;;;589.10;2176.00;;;;;;5116858;27;20039;-74
2021/06/26 03:47:05;;;;;;;14.82;4.55;;;589.20;2150.40;;;;;;5135301;27;20019;-74
2021/06/26 03:49:35;;;;;;;11.52;4.57;;;589.20;2176.00;;;;;;5135246;27;20114;-77
2021/06/26 03:52:01;;;;;;;10.90;4.80;;;589.20;2150.40;;;;;;5135415;27;20349;-74
2021/06/26 03:54:27;;;;;;;14.30;3.95;;;589.10;2176.00;;;;;;5134773;27;20480;-76
2021/06/26 03:56:53;;;;;;;12.75;4.28;;;589.00;2176.00;;;;;;5135104;27;20029;-74
2021/06/26 03:59:18;;;;;;;9.75;4.53;;;589.10;2176.00;;;;;;5134861;27;20376;-74
2021/06/26 04:01:44;;;;;;;11.18;4.18;;;589.10;2176.00;;;;;;5135097;27;20028;-74
2021/06/26 04:04:10;;;;;;;11.45;4.80;;;589.10;2176.00;;;;;;5134736;27;20034;-74
2021/06/26 04:06:36;;;;;;;14.77;5.25;;;589.10;2201.60;;;;;;5135197;27;20030;-74
2021/06/26 04:09:02;;;;;;;17.58;4.30;;;589.20;2176.00;;;;;;5134830;27;20019;-74
2021/06/26 04:11:28;;;;;;;16.95;5.30;;;589.20;2176.00;;;;;;5134653;27;20019;-73
2021/06/26 04:13:54;;;;;;;15.50;4.63;;;589.20;2201.60;;;;;;5135301;27;20022;-74
2021/06/26 04:16:19;;;;;;;12.23;3.95;;;589.40;2201.60;;;;;;5134287;27;20061;-73
2021/06/26 04:18:45;;;;;;;9.98;4.53;;;589.40;2201.60;;;;;;5134756;27;20114;-74
2021/06/26 04:21:11;;;;;;;13.18;4.47;;;589.40;2201.60;;;;;;5134539;27;20007;-74
2021/06/26 04:23:37;;;;;;;10.13;4.85;;;589.50;2201.60;;;;;;5134579;27;20534;-74
2021/06/26 04:26:03;;;;;;;9.57;4.05;;;589.00;2252.80;;;;;;5115030;27;20110;-74
2021/06/26 04:28:29;;;;;;;10.18;4.05;;;588.80;2252.80;;;;;;5116281;27;20035;-76
2021/06/26 04:30:55;;;;;;;16.33;5.28;;;588.80;2252.80;;;;;;5134591;27;20464;-73
2021/06/26 04:33:21;;;;;;;13.65;4.53;;;589.00;2227.20;;;;;;5116319;27;20015;-77
2021/06/26 04:35:47;;;;;;;10.32;4.38;;;588.90;2227.20;;;;;;5134594;27;20035;-74
2021/06/26 04:38:12;;;;;;;10.80;4.13;;;588.90;2227.20;;;;;;5134360;27;20015;-75
2021/06/26 04:40:38;;;;;;;9.95;4.85;;;588.80;2252.80;;;;;;5134074;27;20533;-73
2021/06/26 04:43:04;;;;;;;14.23;5.57;;;588.90;2252.80;;;;;;5115568;27;20030;-73
2021/06/26 04:45:30;;;;;;;11.43;5.05;;;564.10;2278.40;;;;;;5134189;27;20015;-74
2021/06/26 04:48:00;;;;;;;11.95;4.80;;;564.10;2304.00;;;;;;5115807;27;20019;-78
2021/06/26 04:50:26;;;;;;;14.95;4.85;;;564.10;2304.00;;;;;;5115847;27;20026;-73
2021/06/26 04:52:52;;;;;;;18.73;4.80;;;564.10;2278.40;;;;;;5112915;27;20599;-73
2021/06/26 04:55:18;;;;;;;11.07;5.05;;;589.00;2252.80;;;;;;5134261;27;20137;-73
2021/06/26 04:57:44;;;;;;;15.85;4.47;;;589.00;2252.80;;;;;;5115766;27;20102;-76
2021/06/26 05:00:12;;;;;;;14.88;4.40;;;589.00;2227.20;;;;;;5133893;27;20023;-77
2021/06/26 05:02:38;;;;;;;12.25;4.47;;;564.00;2278.40;;;;;;5115747;27;20019;-78
2021/06/26 05:05:05;;;;;;;12.40;5.13;;;588.80;2252.80;;;;;;5115744;27;20118;-74
2021/06/26 05:07:30;;;;;;;15.65;4.78;;;588.90;2252.80;;;;;;5134334;27;20022;-73
2021/06/26 05:09:56;;;;;;;11.95;4.63;;;589.10;2201.60;;;;;;5133620;27;20030;-74
2021/06/26 05:12:22;;;;;;;12.70;5.75;;;589.10;2201.60;;;;;;5132616;27;20027;-74
2021/06/26 05:14:48;;;;;;;18.60;5.25;;;588.90;2252.80;;;;;;5115353;27;20031;-74
2021/06/26 05:17:13;;;;;;;16.38;5.85;;;589.10;2227.20;;;;;;5115221;27;20051;-74
2021/06/26 05:19:40;;;;;;;14.85;5.05;;;589.10;2227.20;;;;;;5114857;27;20015;-73
2021/06/26 05:22:06;;;;;;;12.52;4.90;;;589.00;2252.80;;;;;;5133585;27;20027;-74
2021/06/26 05:24:32;;;;;;;8.27;4.15;;;589.10;2227.20;;;;;;5111760;27;20496;-75
2021/06/26 05:26:57;;;;;;;13.02;4.88;;;589.10;2201.60;;;;;;5114640;27;20023;-76
2021/06/26 05:29:23;;;;;;;11.68;4.95;;;589.30;2201.60;;;;;;5112750;27;20420;-73
2021/06/26 05:31:49;;;;;;;15.65;6.28;;;589.50;2201.60;;;;;;5111961;27;20019;-74
2021/06/26 05:34:14;;;;;;;14.18;5.00;;;589.50;2201.60;;;;;;5113855;27;20015;-75
2021/06/26 05:36:40;;;;;;;9.50;5.20;;;589.60;2176.00;;;;;;5132884;27;20425;-75
2021/06/26 05:39:06;;;;;;;17.67;5.38;;;614.40;2176.00;;;;;;5133337;27;20031;-74
2021/06/26 05:41:31;;;;;;;14.05;6.95;;;589.70;2176.00;;;;;;5132962;27;20024;-74
2021/06/26 05:43:57;;;;;;;16.55;5.45;;;589.70;2150.40;;;;;;5132174;27;20126;-74
2021/06/26 05:46:23;;;;;;;15.98;4.93;;;614.40;2150.40;;;;;;5118185;27;20050;-77
2021/06/26 05:48:48;;;;;;;9.23;4.43;;;614.50;2124.80;;;;;;5122259;27;20029;-74
2021/06/26 05:51:16;;;;;;;14.50;5.07;;;614.70;2124.80;;;;;;5120168;27;20024;-74
2021/06/26 05:53:43;;;;;;;12.40;4.40;;;614.70;2124.80;;;;;;5120247;27;20124;-74
2021/06/26 05:56:09;;;;;;;14.65;5.22;;;614.50;2124.80;;;;;;5133220;27;20019;-74
2021/06/26 05:58:37;;;;;;;13.45;4.72;;;614.60;2124.80;;;;;;5113962;27;20027;-74
2021/06/26 06:01:10;;;;;;;13.70;4.57;;;614.80;2099.20;;;;;;5114312;27;20027;-76
2021/06/26 06:03:36;;;;;;;14.77;5.57;;;614.80;2124.80;;;;;;5132849;27;20031;-78
2021/06/26 06:06:02;;;;;;;13.40;5.45;;;614.80;2099.20;;;;;;5132937;27;20030;-75
2021/06/26 06:08:28;;;;;;;15.10;4.50;;;614.80;2099.20;;;;;;5120488;27;20023;-77
2021/06/26 06:10:53;;;;;;;7.30;4.15;;;614.90;2099.20;;;;;;5120513;27;20477;-74
2021/06/26 06:13:21;;;;;;;11.80;4.55;;;614.90;2099.20;;;;;;5121171;27;20046;-74
2021/06/26 06:15:48;;;;;;;13.38;4.93;;;615.20;2073.60;;;;;;5121412;27;20020;-77
2021/06/26 06:18:17;;;;;;;9.75;4.47;;;615.30;2099.20;;;;;;5124538;27;20068;-75
2021/06/26 06:20:43;;;;;;;12.75;5.28;;;615.20;2073.60;;;;;;5122302;27;20023;-74
2021/06/26 06:23:10;;;;;;;10.65;4.68;;;615.20;2048.00;;;;;;5122965;27;20023;-74
2021/06/26 06:25:36;;;;;;;12.85;4.57;;;615.20;2048.00;;;;;;5131733;27;20031;-74
2021/06/26 06:28:02;;;;;;;14.93;5.40;;;615.30;2048.00;;;;;;5132193;27;20030;-74
2021/06/26 06:30:32;;;;;;;9.32;4.13;;;640.10;2022.40;;;;;;5132118;27;20049;-77
2021/06/26 06:32:59;;;;;;;14.63;5.65;;;640.20;2048.00;;;;;;5110644;28;20023;-75
2021/06/26 06:35:25;;;;;;;11.50;4.40;;;640.30;1996.80;;;;;;5104823;28;20047;-74
2021/06/26 06:37:51;;;;;;;12.32;5.13;;;640.60;2022.40;;;;;;5129399;27;20023;-77
2021/06/26 06:40:17;;;;;;;14.13;5.07;;;640.60;1996.80;;;;;;5124702;27;20116;-75
2021/06/26 06:42:43;;;;;;;14.70;5.15;;;640.80;1971.20;;;;;;5125344;27;20520;-76
2021/06/26 06:45:10;;;;;;;9.65;4.35;;;640.90;1945.60;;;;;;5123171;28;20046;-74
2021/06/26 06:47:37;;;;;;;9.95;3.67;;;665.70;1996.80;;;;;;5114157;28;20380;-74
2021/06/26 06:50:04;;;;;;;12.85;4.28;;;665.70;1971.20;;;;;;5127020;27;20385;-76
2021/06/26 06:52:30;;;;;;;9.73;4.72;;;665.70;1945.60;;;;;;5113840;28;20106;-78
2021/06/26 06:54:56;;;;;;;10.35;4.10;;;665.60;1971.20;;;;;;5119186;28;20109;-75
2021/06/26 06:57:24;;;;;;;11.73;4.60;;;665.70;1971.20;;;;;;5113618;28;20054;-77
2021/06/26 06:59:53;;;;;;;8.63;4.63;;;666.00;1971.20;;;;;;5132759;28;20019;-76
2021/06/26 07:02:20;;;;;;;13.10;4.47;;;666.20;1945.60;;;;;;5132537;28;20024;-76
2021/06/26 07:04:46;;;;;;;11.65;4.90;;;666.20;1920.00;;;;;;5132137;27;20476;-76
2021/06/26 07:07:12;;;;;;;15.93;5.65;;;666.30;1920.00;;;;;;5132532;27;20020;-74
2021/06/26 07:09:38;;;;;;;14.07;5.35;;;666.30;1920.00;;;;;;5113259;28;20365;-75
2021/06/26 07:12:04;;;;;;;13.75;4.95;;;666.10;1920.00;;;;;;5132548;27;20034;-78
2021/06/26 07:14:30;;;;;;;10.18;4.43;;;666.30;1920.00;;;;;;5131993;28;20049;-75
2021/06/26 07:16:56;;;;;;;11.80;4.40;;;666.40;1920.00;;;;;;5114142;28;20023;-76
2021/06/26 07:19:22;;;;;;;7.95;3.95;;;666.50;1920.00;;;;;;5132106;28;20024;-74
2021/06/26 07:21:47;;;;;;;10.18;4.28;;;666.40;1894.40;;;;;;5132141;27;20125;-75
2021/06/26 07:24:13;;;;;;;8.90;4.47;;;666.50;1868.80;;;;;;5113416;28;20425;-75
2021/06/26 07:26:39;;;;;;;14.25;4.55;;;666.50;1894.40;;;;;;5113389;27;20019;-76
2021/06/26 07:29:06;;;;;;;8.38;4.47;;;691.20;1868.80;;;;;;5114013;28;20476;-75
2021/06/26 07:31:32;;;;;;;11.55;4.28;;;691.40;1868.80;;;;;;5131063;28;20023;-78
2021/06/26 07:33:57;;;;;;;8.90;4.05;;;691.60;1868.80;;;;;;5121545;28;20034;-77
2021/06/26 07:36:23;;;;;;;6.97;3.78;;;691.70;1817.60;;;;;;5124965;27;20473;-76
2021/06/26 07:38:49;;;;;;;8.50;3.88;;;691.70;1766.40;;;;;;5130817;28;20027;-78
2021/06/26 07:41:15;;;;;;;16.60;5.07;;;691.80;1766.40;;;;;;5128714;27;20384;-75
2021/06/26 07:43:41;;;;;;;8.95;4.07;;;691.90;1792.00;;;;;;5131999;28;20441;-77
2021/06/26 07:46:07;;;;;;;11.90;4.40;;;692.00;1766.40;;;;;;5118458;28;20469;-76
2021/06/26 07:48:33;;;;;;;11.98;4.05;;;692.10;1740.80;;;;;;5113637;28;20055;-76
2021/06/26 07:50:59;;;;;;;11.25;3.83;;;692.00;1715.20;;;;;;5129889;27;20026;-77
2021/06/26 07:53:25;;;;;;;8.50;3.45;;;716.80;1766.40;;;;;;5145740;27;20035;-78
2021/06/26 07:55:51;;;;;;;9.32;4.15;;;692.10;1715.20;;;;;;5117037;27;20023;-75
2021/06/26 07:58:21;;;;;;;9.82;4.20;;;692.00;1715.20;;;;;;5117115;27;20521;-75
2021/06/26 08:00:48;;;;;;;9.23;4.05;;;692.10;1715.20;;;;;;5117213;27;20114;-75
2021/06/26 08:03:15;;;;;;;10.52;4.25;;;716.80;1740.80;;;;;;5135432;27;20098;-74
2021/06/26 08:05:41;;;;;;;10.70;4.55;;;692.10;1715.20;;;;;;5135667;27;20030;-74
2021/06/26 08:08:06;;;;;;;13.13;4.47;;;692.00;1689.60;;;;;;5135019;27;20019;-75
2021/06/26 08:10:32;;;;;;;8.20;4.43;;;692.00;1715.20;;;;;;5135054;27;20361;-74
2021/06/26 08:12:58;;;;;;;11.18;4.60;;;692.10;1740.80;;;;;;5134772;27;20023;-75
2021/06/26 08:15:23;;;;;;;9.40;4.22;;;717.20;1740.80;;;;;;5134002;27;20023;-78
2021/06/26 08:17:49;;;;;;;9.82;4.35;;;717.10;1689.60;;;;;;5123882;27;20453;-75
2021/06/26 08:20:15;;;;;;;14.65;4.43;;;717.10;1715.20;;;;;;5135264;27;20081;-79
2021/06/26 08:22:41;;;;;;;8.38;4.35;;;717.10;1689.60;;;;;;5123150;27;20126;-75
2021/06/26 08:25:07;;;;;;;10.15;4.13;;;717.00;1689.60;;;;;;5133892;27;20484;-74
2021/06/26 08:27:33;;;;;;;8.93;4.55;;;717.10;1689.60;;;;;;5131966;27;20019;-74
2021/06/26 08:29:59;;;;;;;8.43;4.00;;;716.90;1689.60;;;;;;5134652;27;20479;-74
2021/06/26 08:32:25;;;;;;;8.80;3.67;;;716.90;1689.60;;;;;;5134709;27;20054;-78
2021/06/26 08:34:51;;;;;;;13.13;3.83;;;716.80;1689.60;;;;;;5130140;27;20052;-74
2021/06/26 08:37:16;;;;;;;15.10;4.43;;;717.00;1664.00;;;;;;5130289;27;20030;-79
2021/06/26 08:39:42;;;;;;;14.07;4.53;;;717.10;1689.60;;;;;;5112455;28;20019;-74
2021/06/26 08:42:08;;;;;;;9.52;3.72;;;716.90;1664.00;;;;;;5131863;27;20034;-74
2021/06/26 08:44:34;;;;;;;10.45;4.10;;;717.20;1664.00;;;;;;5117277;27;20035;-74
2021/06/26 08:47:01;;;;;;;11.48;4.30;;;717.60;1638.40;;;;;;5126402;27;20020;-75
2021/06/26 08:49:27;;;;;;;14.82;4.07;;;717.70;1612.80;;;;;;5115891;27;20016;-75
2021/06/26 08:51:54;;;;;;;25.10;4.95;;;742.40;1638.40;;;;;;5123551;27;20148;-78
2021/06/26 08:54:21;;;;;;;9.57;4.25;;;717.70;1638.40;;;;;;5126977;27;20385;-75
2021/06/26 08:56:48;;;;;;;12.40;4.75;;;717.70;1638.40;;;;;;5134072;27;20019;-79
2021/06/26 08:59:16;;;;;;;12.88;3.90;;;717.70;1587.20;;;;;;5134066;27;20015;-74
2021/06/26 09:01:43;;;;;;;10.18;4.70;;;742.40;1638.40;;;;;;5133532;27;20020;-74
2021/06/26 09:04:20;;;;;;;9.00;4.47;;;742.60;1587.20;;;;;;5122896;27;20031;-75
2021/06/26 09:06:59;;;;;;;12.20;4.25;;;742.80;1587.20;;;;;;5128342;27;20027;-76
2021/06/26 09:09:38;;;;;;;8.88;3.80;;;743.00;1587.20;;;;;;5123988;27;20011;-78
2021/06/26 09:12:05;;;;;;;9.68;4.10;;;743.00;1536.00;;;;;;5114257;27;20027;-76
2021/06/26 09:14:32;;;;;;;10.98;3.85;;;743.00;1510.40;;;;;;5141114;27;20019;-77
2021/06/26 09:16:58;;;;;;;9.52;3.70;;;743.00;1536.00;;;;;;5115656;27;20051;-75
2021/06/26 09:19:24;;;;;;;11.15;4.10;;;743.10;1561.60;;;;;;5122304;27;20435;-77
2021/06/26 09:22:01;;;;;;;9.98;3.58;;;743.30;1536.00;;;;;;5120444;27;20118;-76
2021/06/26 09:24:37;;;;;;;8.25;3.85;;;768.00;1433.60;;;;;;5122716;27;20400;-77
2021/06/26 09:27:03;;;;;;;7.53;3.80;;;768.00;1433.60;;;;;;5131496;27;20019;-76
2021/06/26 09:29:29;;;;;;;12.40;3.92;;;768.10;1459.20;;;;;;5133651;27;20469;-78
2021/06/26 09:32:00;;;;;;;7.20;3.42;;;768.40;1459.20;;;;;;5133028;27;20019;-76
2021/06/26 09:34:41;;;;;;;7.40;3.33;;;768.60;1433.60;;;;;;5114371;27;20441;-75
2021/06/26 09:37:17;;;;;;;6.75;3.35;;;768.80;1408.00;;;;;;5132178;27;20026;-76
2021/06/26 09:39:43;;;;;;;8.70;3.35;;;793.60;1433.60;;;;;;5131266;27;20117;-75
2021/06/26 09:42:22;;;;;;;12.10;3.60;;;768.90;1331.20;;;;;;5127600;27;20024;-76
2021/06/26 09:45:01;;;;;;;6.63;3.45;;;793.70;1356.80;;;;;;5131479;27;20042;-75
2021/06/26 09:47:39;;;;;;;10.75;3.28;;;793.80;1382.40;;;;;;5130955;27;20107;-77
2021/06/26 09:50:07;;;;;;;6.47;2.95;;;794.00;1408.00;;;;;;5130628;27;20015;-76
2021/06/26 09:52:42;;;;;;;7.93;3.00;;;794.00;1331.20;;;;;;5132985;27;20152;-77
2021/06/26 09:55:20;;;;;;;5.65;2.92;;;794.10;1331.20;;;;;;5112353;27;20050;-80
2021/06/26 09:57:48;;;;;;;7.85;3.10;;;794.50;1331.20;;;;;;5132913;27;20023;-74
2021/06/26 10:00:16;;;;;;;10.50;3.78;;;794.50;1280.00;;;;;;5132816;27;20015;-78
2021/06/26 10:02:43;;;;;;;7.65;2.85;;;819.20;1280.00;;;;;;5132383;27;20072;-75
2021/06/26 10:05:10;;;;;;;8.23;3.17;;;794.40;1305.60;;;;;;5112781;27;20027;-74
2021/06/26 10:07:38;;;;;;;11.40;3.15;;;819.20;1280.00;;;;;;5112922;27;20034;-76
2021/06/26 10:10:04;;;;;;;7.15;2.78;;;819.30;1254.40;;;;;;5130076;27;20500;-75
2021/06/26 10:12:30;;;;;;;5.88;2.70;;;819.50;1228.80;;;;;;5129466;27;20023;-75
2021/06/26 10:14:57;;;;;;;7.85;3.40;;;819.30;1177.60;;;;;;5132293;27;20572;-75
2021/06/26 10:17:23;;;;;;;7.97;2.78;;;819.50;1177.60;;;;;;5132370;27;20023;-74
2021/06/26 10:19:52;;;;;;;10.18;2.90;;;819.60;1203.20;;;;;;5118397;27;20030;-75
2021/06/26 10:22:17;;;;;;;8.43;3.17;;;819.50;1177.60;;;;;;5129188;27;20025;-76
2021/06/26 10:24:44;;;;;;;7.53;2.45;;;819.30;1203.20;;;;;;5132023;27;20047;-76
2021/06/26 10:27:23;;;;;;;7.28;3.28;;;819.60;1254.40;;;;;;5130011;27;20039;-76
2021/06/26 10:29:50;;;;;;;7.85;3.20;;;819.90;1177.60;;;;;;5131767;27;20502;-76
2021/06/26 10:32:17;;;;;;;8.75;2.88;;;820.10;1177.60;;;;;;5111132;28;20522;-76
2021/06/26 10:34:48;;;;;;;13.20;3.75;;;844.80;1228.80;;;;;;5114249;27;20026;-76
2021/06/26 10:37:15;;;;;;;8.57;3.08;;;844.80;1228.80;;;;;;5113794;28;20016;-76
2021/06/26 10:39:41;;;;;;;12.38;3.30;;;844.80;1203.20;;;;;;5113360;28;20469;-76
2021/06/26 10:42:09;;;;;;;7.03;2.88;;;844.80;1228.80;;;;;;5114098;28;20030;-77
2021/06/26 10:44:44;;;;;;;7.95;4.72;;;820.10;1177.60;;;;;;5123958;27;20037;-76
2021/06/26 10:47:10;;;;;;;7.03;3.47;;;820.10;1203.20;;;;;;5115658;28;20039;-76
2021/06/26 10:49:36;;;;;;;11.68;4.40;;;819.60;1228.80;;;;;;5113511;28;20030;-75
2021/06/26 10:52:11;;;;;;;7.22;3.42;;;819.30;1280.00;;;;;;5113916;28;20134;-76
2021/06/26 10:54:48;;;;;;;7.82;3.28;;;794.50;1305.60;;;;;;5119082;27;20051;-78
2021/06/26 10:57:13;;;;;;;10.80;4.30;;;794.20;1305.60;;;;;;5132862;28;20051;-78
2021/06/26 10:59:39;;;;;;;14.57;3.40;;;819.30;1280.00;;;;;;5132340;28;20085;-76
2021/06/26 11:02:05;;;;;;;10.48;3.15;;;819.60;1280.00;;;;;;5132332;27;20540;-77
2021/06/26 11:04:32;;;;;;;7.93;2.88;;;820.00;1228.80;;;;;;5131407;28;20037;-74
2021/06/26 11:07:10;;;;;;;12.20;3.20;;;820.10;1203.20;;;;;;5113197;28;20023;-75
2021/06/26 11:09:41;;;;;;;7.07;2.75;;;844.90;1203.20;;;;;;5129670;28;20030;-76
2021/06/26 11:12:20;;;;;;;9.10;3.30;;;845.10;1203.20;;;;;;5113272;28;20026;-76
2021/06/26 11:14:52;;;;;;;8.35;3.22;;;844.80;1177.60;;;;;;5128349;28;20019;-76
2021/06/26 11:17:21;;;;;;;15.13;3.72;;;844.90;1203.20;;;;;;5127278;28;20540;-76
2021/06/26 11:19:47;;;;;;;11.32;3.60;;;845.10;1152.00;;;;;;5125459;28;20034;-76
2021/06/26 11:22:14;;;;;;;10.35;3.22;;;845.20;1152.00;;;;;;5128055;28;20084;-77
2021/06/26 11:24:44;;;;;;;7.57;2.90;;;845.30;1152.00;;;;;;5124496;27;20035;-75
2021/06/26 11:27:14;;;;;;;7.53;3.00;;;845.40;1152.00;;;;;;5116957;27;20027;-75
2021/06/26 11:29:42;;;;;;;8.90;3.38;;;845.20;1177.60;;;;;;5127955;27;20020;-75
2021/06/26 11:32:37;;;;;;;9.73;3.40;;;845.20;1177.60;;;;;;5132403;27;20457;-77
2021/06/26 11:35:04;;;;;;;9.50;3.15;;;845.20;1126.40;;;;;;5049813;28;20430;-77
2021/06/26 11:37:41;;;;;;;9.05;3.03;;;845.30;1152.00;;;;;;5052524;28;20096;-77
2021/06/26 11:40:13;;;;;;;9.05;4.05;;;845.40;1126.40;;;;;;5049678;28;20060;-78
2021/06/26 11:42:52;;;;;;;7.72;2.85;;;845.40;1126.40;;;;;;5052679;28;20096;-76
2021/06/26 11:45:19;;;;;;;16.50;3.92;;;845.20;1152.00;;;;;;5049626;28;20041;-76
2021/06/26 11:47:45;;;;;;;7.30;3.42;;;844.80;1203.20;;;;;;5035810;28;20029;-76
2021/06/26 11:50:16;;;;;;;12.13;3.35;;;845.00;1203.20;;;;;;5052301;28;20025;-76
2021/06/26 11:52:42;;;;;;;11.13;4.05;;;844.80;1228.80;;;;;;5052329;28;20079;-76
2021/06/26 11:55:09;;;;;;;7.55;3.55;;;845.20;1203.20;;;;;;5052184;28;20102;-75
2021/06/26 11:57:35;;;;;;;8.05;3.10;;;844.90;1203.20;;;;;;5052164;28;20100;-76
2021/06/26 12:00:00;;;;;;;12.88;4.38;;;820.10;1177.60;;;;;;5052265;28;20104;-77
2021/06/26 12:02:33;;;;;;;10.95;4.15;;;844.90;1177.60;;;;;;5052081;28;20025;-74
2021/06/26 12:05:03;;;;;;;10.15;4.05;;;845.20;1177.60;;;;;;5052210;28;20232;-75
2021/06/26 12:07:36;;;;;;;13.50;4.40;;;845.40;1177.60;;;;;;5052066;28;20132;-74
2021/06/26 12:10:07;;;;;;;11.60;4.40;;;845.70;1152.00;;;;;;5052321;28;20112;-75